Troutman, North Carolina
Current Conditions -  °F | °C
As of 1:35 PM on Monday 22 Dec 2014 (Local Time) from KSVH Reporting Station
Haze Haze  
Wind Chill: 31°   Ceiling: 300
Heat Index: 36°   Visibility: 1.7mi
Dew Point: 36°   Wind: 7mph
Humidity: 98%   Direction: 60°ENE
Pressure: 30.05"   Gusts: NA
Location:  35.7°N, 80.89°W
Report Text: KSVH 221835Z AUTO 06006KT 1 3/4SM BR OVC003 02/02 A3005 RMK AO2 T00230020
Loading
Personal Weather Stations






























Interactive Weather Map New forecast layout! Learn more

10-Day Weather Forecast

Advertisements
Track Severe Weather on mobile